sensor_id;sensor_type;location;lat;lon;timestamp;P1;durP1;ratioP1;P2;durP2;ratioP2
78302;SDS011;67559;24.140;-110.296;2024-01-15T00:01:41;9.05;;;1.63;;
78302;SDS011;67559;24.140;-110.296;2024-01-15T00:04:11;10.02;;;1.50;;
78302;SDS011;67559;24.140;-110.296;2024-01-15T00:06:41;8.35;;;1.27;;
78302;SDS011;67559;24.140;-110.296;2024-01-15T00:09:10;7.82;;;1.30;;
78302;SDS011;67559;24.140;-110.296;2024-01-15T00:11:39;5.55;;;1.40;;
78302;SDS011;67559;24.140;-110.296;2024-01-15T00:14:08;6.05;;;1.08;;
78302;SDS011;67559;24.140;-110.296;2024-01-15T00:16:41;9.50;;;1.20;;
78302;SDS011;67559;24.140;-110.296;2024-01-15T00:19:10;3.30;;;1.02;;
78302;SDS011;67559;24.140;-110.296;2024-01-15T00:21:39;8.77;;;1.50;;
78302;SDS011;67559;24.140;-110.296;2024-01-15T00:24:09;10.00;;;1.75;;
78302;SDS011;67559;24.140;-110.296;2024-01-15T00:26:39;14.68;;;1.90;;
78302;SDS011;67559;24.140;-110.296;2024-01-15T00:29:08;8.50;;;1.38;;
78302;SDS011;67559;24.140;-110.296;2024-01-15T00:31:38;14.75;;;2.42;;
78302;SDS011;67559;24.140;-110.296;2024-01-15T00:34:08;8.40;;;0.98;;
78302;SDS011;67559;24.140;-110.296;2024-01-15T00:39:05;13.40;;;1.10;;
78302;SDS011;67559;24.140;-110.296;2024-01-15T00:41:37;4.25;;;1.15;;
78302;SDS011;67559;24.140;-110.296;2024-01-15T00:44:07;7.88;;;1.27;;
78302;SDS011;67559;24.140;-110.296;2024-01-15T00:46:47;6.75;;;1.27;;
78302;SDS011;67559;24.140;-110.296;2024-01-15T00:51:44;9.38;;;1.23;;
78302;SDS011;67559;24.140;-110.296;2024-01-15T00:54:14;3.28;;;1.13;;
78302;SDS011;67559;24.140;-110.296;2024-01-15T00:59:15;5.40;;;1.30;;
78302;SDS011;67559;24.140;-110.296;2024-01-15T01:01:47;9.38;;;1.20;;
78302;SDS011;67559;24.140;-110.296;2024-01-15T01:04:17;5.38;;;1.27;;
78302;SDS011;67559;24.140;-110.296;2024-01-15T01:09:14;13.35;;;1.90;;
78302;SDS011;67559;24.140;-110.296;2024-01-15T01:11:44;8.90;;;1.70;;
78302;SDS011;67559;24.140;-110.296;2024-01-15T01:14:13;9.95;;;1.30;;
78302;SDS011;67559;24.140;-110.296;2024-01-15T01:16:43;6.93;;;1.58;;
78302;SDS011;67559;24.140;-110.296;2024-01-15T01:19:12;8.82;;;1.58;;
78302;SDS011;67559;24.140;-110.296;2024-01-15T01:21:42;11.05;;;1.50;;
78302;SDS011;67559;24.140;-110.296;2024-01-15T01:26:40;14.85;;;1.85;;
78302;SDS011;67559;24.140;-110.296;2024-01-15T01:29:09;16.17;;;2.53;;
78302;SDS011;67559;24.140;-110.296;2024-01-15T01:31:44;48.47;;;4.22;;
78302;SDS011;67559;24.140;-110.296;2024-01-15T01:34:14;31.40;;;3.40;;
78302;SDS011;67559;24.140;-110.296;2024-01-15T01:36:44;21.35;;;2.83;;
78302;SDS011;67559;24.140;-110.296;2024-01-15T01:42:07;8.48;;;2.13;;
78302;SDS011;67559;24.140;-110.296;2024-01-15T01:44:38;13.68;;;1.90;;
78302;SDS011;67559;24.140;-110.296;2024-01-15T01:47:08;13.10;;;2.03;;
78302;SDS011;67559;24.140;-110.296;2024-01-15T01:52:06;27.38;;;2.40;;
78302;SDS011;67559;24.140;-110.296;2024-01-15T01:54:36;19.90;;;2.63;;
78302;SDS011;67559;24.140;-110.296;2024-01-15T01:57:07;36.05;;;3.90;;
78302;SDS011;67559;24.140;-110.296;2024-01-15T01:59:37;36.47;;;4.28;;
78302;SDS011;67559;24.140;-110.296;2024-01-15T02:02:07;35.05;;;3.42;;
78302;SDS011;67559;24.140;-110.296;2024-01-15T02:04:36;25.10;;;3.60;;
78302;SDS011;67559;24.140;-110.296;2024-01-15T02:07:07;22.85;;;4.25;;
78302;SDS011;67559;24.140;-110.296;2024-01-15T02:09:36;26.33;;;4.35;;
78302;SDS011;67559;24.140;-110.296;2024-01-15T02:12:10;38.65;;;4.43;;
78302;SDS011;67559;24.140;-110.296;2024-01-15T02:14:46;54.22;;;6.05;;
78302;SDS011;67559;24.140;-110.296;2024-01-15T02:17:15;40.30;;;5.97;;
78302;SDS011;67559;24.140;-110.296;2024-01-15T02:19:46;30.35;;;5.22;;
78302;SDS011;67559;24.140;-110.296;2024-01-15T02:22:16;19.20;;;4.65;;
78302;SDS011;67559;24.140;-110.296;2024-01-15T02:27:16;20.63;;;5.80;;
78302;SDS011;67559;24.140;-110.296;2024-01-15T02:29:46;32.28;;;6.55;;
78302;SDS011;67559;24.140;-110.296;2024-01-15T02:34:43;36.47;;;5.90;;
78302;SDS011;67559;24.140;-110.296;2024-01-15T02:37:12;42.15;;;5.50;;
78302;SDS011;67559;24.140;-110.296;2024-01-15T02:39:42;49.20;;;6.72;;
78302;SDS011;67559;24.140;-110.296;2024-01-15T02:42:12;45.80;;;6.22;;
78302;SDS011;67559;24.140;-110.296;2024-01-15T02:44:41;43.65;;;6.65;;
78302;SDS011;67559;24.140;-110.296;2024-01-15T02:47:25;33.25;;;7.63;;
78302;SDS011;67559;24.140;-110.296;2024-01-15T02:50:00;38.33;;;7.95;;
78302;SDS011;67559;24.140;-110.296;2024-01-15T02:52:33;63.58;;;9.80;;
78302;SDS011;67559;24.140;-110.296;2024-01-15T02:55:03;63.90;;;10.23;;
78302;SDS011;67559;24.140;-110.296;2024-01-15T02:57:33;64.78;;;11.75;;
78302;SDS011;67559;24.140;-110.296;2024-01-15T03:00:03;62.17;;;10.98;;
78302;SDS011;67559;24.140;-110.296;2024-01-15T03:02:36;72.78;;;13.57;;
78302;SDS011;67559;24.140;-110.296;2024-01-15T03:05:07;65.47;;;12.98;;
78302;SDS011;67559;24.140;-110.296;2024-01-15T03:07:37;89.28;;;16.90;;
78302;SDS011;67559;24.140;-110.296;2024-01-15T03:10:07;100.45;;;19.70;;
78302;SDS011;67559;24.140;-110.296;2024-01-15T03:12:37;88.40;;;20.13;;
78302;SDS011;67559;24.140;-110.296;2024-01-15T03:15:07;97.82;;;28.02;;
78302;SDS011;67559;24.140;-110.296;2024-01-15T03:17:41;109.78;;;27.73;;
78302;SDS011;67559;24.140;-110.296;2024-01-15T03:20:10;79.28;;;19.85;;
78302;SDS011;67559;24.140;-110.296;2024-01-15T03:22:42;71.28;;;15.98;;
78302;SDS011;67559;24.140;-110.296;2024-01-15T03:25:11;90.47;;;17.33;;
78302;SDS011;67559;24.140;-110.296;2024-01-15T03:27:42;66.40;;;13.35;;
78302;SDS011;67559;24.140;-110.296;2024-01-15T03:30:11;63.45;;;11.73;;
78302;SDS011;67559;24.140;-110.296;2024-01-15T03:32:41;50.85;;;12.05;;
78302;SDS011;67559;24.140;-110.296;2024-01-15T03:35:13;45.28;;;9.35;;
78302;SDS011;67559;24.140;-110.296;2024-01-15T03:37:43;32.05;;;8.02;;
78302;SDS011;67559;24.140;-110.296;2024-01-15T03:40:21;42.95;;;7.18;;
78302;SDS011;67559;24.140;-110.296;2024-01-15T03:42:51;28.50;;;4.80;;
78302;SDS011;67559;24.140;-110.296;2024-01-15T03:45:23;34.22;;;6.30;;
78302;SDS011;67559;24.140;-110.296;2024-01-15T03:47:53;41.10;;;8.02;;
78302;SDS011;67559;24.140;-110.296;2024-01-15T03:50:23;43.53;;;9.57;;
78302;SDS011;67559;24.140;-110.296;2024-01-15T03:52:53;40.22;;;8.18;;
78302;SDS011;67559;24.140;-110.296;2024-01-15T03:55:31;41.08;;;9.57;;
78302;SDS011;67559;24.140;-110.296;2024-01-15T03:58:00;56.30;;;10.50;;
78302;SDS011;67559;24.140;-110.296;2024-01-15T04:03:25;49.17;;;10.48;;
78302;SDS011;67559;24.140;-110.296;2024-01-15T04:05:56;46.22;;;9.35;;
78302;SDS011;67559;24.140;-110.296;2024-01-15T04:08:36;41.30;;;9.63;;
78302;SDS011;67559;24.140;-110.296;2024-01-15T04:11:14;59.97;;;9.60;;
78302;SDS011;67559;24.140;-110.296;2024-01-15T04:16:15;29.90;;;7.60;;
78302;SDS011;67559;24.140;-110.296;2024-01-15T04:18:50;34.35;;;6.80;;
78302;SDS011;67559;24.140;-110.296;2024-01-15T04:21:20;26.08;;;5.78;;
78302;SDS011;67559;24.140;-110.296;2024-01-15T04:23:50;25.25;;;5.95;;
78302;SDS011;67559;24.140;-110.296;2024-01-15T04:26:19;38.72;;;6.18;;
78302;SDS011;67559;24.140;-110.296;2024-01-15T04:31:21;21.63;;;4.88;;
78302;SDS011;67559;24.140;-110.296;2024-01-15T04:33:50;30.25;;;5.90;;
78302;SDS011;67559;24.140;-110.296;2024-01-15T04:36:22;29.08;;;5.53;;
78302;SDS011;67559;24.140;-110.296;2024-01-15T04:38:53;22.88;;;5.10;;
78302;SDS011;67559;24.140;-110.296;2024-01-15T04:41:23;15.73;;;3.13;;
78302;SDS011;67559;24.140;-110.296;2024-01-15T04:43:53;19.58;;;3.20;;
78302;SDS011;67559;24.140;-110.296;2024-01-15T04:46:23;13.27;;;3.00;;
78302;SDS011;67559;24.140;-110.296;2024-01-15T04:48:52;12.32;;;2.65;;
78302;SDS011;67559;24.140;-110.296;2024-01-15T04:53:49;20.48;;;2.45;;
78302;SDS011;67559;24.140;-110.296;2024-01-15T04:58:51;5.75;;;1.40;;
78302;SDS011;67559;24.140;-110.296;2024-01-15T05:01:22;13.43;;;1.83;;
78302;SDS011;67559;24.140;-110.296;2024-01-15T05:03:53;8.70;;;1.50;;
78302;SDS011;67559;24.140;-110.296;2024-01-15T05:06:26;13.10;;;1.50;;
78302;SDS011;67559;24.140;-110.296;2024-01-15T05:08:59;7.72;;;1.50;;
78302;SDS011;67559;24.140;-110.296;2024-01-15T05:11:31;11.00;;;1.42;;
78302;SDS011;67559;24.140;-110.296;2024-01-15T05:14:02;8.45;;;1.40;;
78302;SDS011;67559;24.140;-110.296;2024-01-15T05:16:34;17.58;;;1.75;;
78302;SDS011;67559;24.140;-110.296;2024-01-15T05:19:09;10.77;;;1.42;;
78302;SDS011;67559;24.140;-110.296;2024-01-15T05:21:38;14.48;;;1.70;;
78302;SDS011;67559;24.140;-110.296;2024-01-15T05:24:17;10.00;;;1.42;;
78302;SDS011;67559;24.140;-110.296;2024-01-15T05:26:46;3.63;;;1.13;;
78302;SDS011;67559;24.140;-110.296;2024-01-15T05:31:47;10.20;;;1.60;;
78302;SDS011;67559;24.140;-110.296;2024-01-15T05:34:17;9.73;;;1.38;;
78302;SDS011;67559;24.140;-110.296;2024-01-15T05:36:46;6.20;;;0.93;;
78302;SDS011;67559;24.140;-110.296;2024-01-15T05:39:15;9.30;;;1.70;;
78302;SDS011;67559;24.140;-110.296;2024-01-15T05:41:47;8.45;;;1.30;;
78302;SDS011;67559;24.140;-110.296;2024-01-15T05:44:23;8.85;;;1.45;;
78302;SDS011;67559;24.140;-110.296;2024-01-15T05:49:21;7.03;;;2.22;;
78302;SDS011;67559;24.140;-110.296;2024-01-15T05:55:00;8.55;;;1.80;;
78302;SDS011;67559;24.140;-110.296;2024-01-15T05:57:31;7.53;;;1.40;;
78302;SDS011;67559;24.140;-110.296;2024-01-15T06:00:00;6.47;;;1.50;;
78302;SDS011;67559;24.140;-110.296;2024-01-15T06:05:03;10.75;;;1.88;;
78302;SDS011;67559;24.140;-110.296;2024-01-15T06:07:34;2.95;;;1.23;;
78302;SDS011;67559;24.140;-110.296;2024-01-15T06:10:03;2.25;;;1.02;;
78302;SDS011;67559;24.140;-110.296;2024-01-15T06:12:33;12.07;;;2.08;;
78302;SDS011;67559;24.140;-110.296;2024-01-15T06:15:02;11.05;;;1.65;;
78302;SDS011;67559;24.140;-110.296;2024-01-15T06:17:36;15.85;;;1.58;;
78302;SDS011;67559;24.140;-110.296;2024-01-15T06:20:05;8.02;;;1.75;;
78302;SDS011;67559;24.140;-110.296;2024-01-15T06:22:48;14.65;;;1.50;;
78302;SDS011;67559;24.140;-110.296;2024-01-15T06:25:24;15.23;;;1.83;;
78302;SDS011;67559;24.140;-110.296;2024-01-15T06:27:54;11.75;;;1.67;;
78302;SDS011;67559;24.140;-110.296;2024-01-15T06:30:23;12.73;;;1.70;;
78302;SDS011;67559;24.140;-110.296;2024-01-15T06:32:52;5.63;;;1.65;;
78302;SDS011;67559;24.140;-110.296;2024-01-15T06:35:22;17.55;;;1.98;;
78302;SDS011;67559;24.140;-110.296;2024-01-15T06:37:51;13.40;;;2.28;;
78302;SDS011;67559;24.140;-110.296;2024-01-15T06:40:20;13.85;;;2.30;;
78302;SDS011;67559;24.140;-110.296;2024-01-15T06:42:50;14.57;;;2.00;;
78302;SDS011;67559;24.140;-110.296;2024-01-15T06:45:19;13.63;;;1.95;;
78302;SDS011;67559;24.140;-110.296;2024-01-15T06:47:48;13.73;;;1.98;;
78302;SDS011;67559;24.140;-110.296;2024-01-15T06:53:27;6.90;;;1.60;;
78302;SDS011;67559;24.140;-110.296;2024-01-15T06:55:59;12.00;;;1.90;;
78302;SDS011;67559;24.140;-110.296;2024-01-15T07:04:23;11.38;;;1.58;;
78302;SDS011;67559;24.140;-110.296;2024-01-15T07:06:59;12.75;;;1.92;;
78302;SDS011;67559;24.140;-110.296;2024-01-15T07:12:51;7.97;;;1.40;;
78302;SDS011;67559;24.140;-110.296;2024-01-15T07:15:23;9.43;;;1.38;;
78302;SDS011;67559;24.140;-110.296;2024-01-15T07:17:52;14.40;;;2.63;;
78302;SDS011;67559;24.140;-110.296;2024-01-15T07:26:31;9.15;;;1.20;;
78302;SDS011;67559;24.140;-110.296;2024-01-15T07:29:01;6.05;;;1.42;;
78302;SDS011;67559;24.140;-110.296;2024-01-15T07:34:37;7.45;;;1.13;;
78302;SDS011;67559;24.140;-110.296;2024-01-15T07:37:21;7.65;;;1.60;;
78302;SDS011;67559;24.140;-110.296;2024-01-15T07:39:50;6.82;;;1.05;;
78302;SDS011;67559;24.140;-110.296;2024-01-15T07:42:34;3.17;;;1.10;;
78302;SDS011;67559;24.140;-110.296;2024-01-15T07:45:14;4.13;;;1.23;;
78302;SDS011;67559;24.140;-110.296;2024-01-15T07:47:43;6.20;;;1.42;;
78302;SDS011;67559;24.140;-110.296;2024-01-15T07:50:12;5.88;;;0.93;;
78302;SDS011;67559;24.140;-110.296;2024-01-15T07:52:42;7.88;;;1.35;;
78302;SDS011;67559;24.140;-110.296;2024-01-15T07:55:11;6.57;;;1.20;;
78302;SDS011;67559;24.140;-110.296;2024-01-15T07:57:40;6.13;;;1.15;;
78302;SDS011;67559;24.140;-110.296;2024-01-15T08:00:10;9.35;;;1.50;;
78302;SDS011;67559;24.140;-110.296;2024-01-15T08:02:40;12.52;;;1.27;;
78302;SDS011;67559;24.140;-110.296;2024-01-15T08:05:10;3.75;;;0.85;;
78302;SDS011;67559;24.140;-110.296;2024-01-15T08:07:39;13.52;;;1.90;;
78302;SDS011;67559;24.140;-110.296;2024-01-15T08:10:08;8.10;;;1.10;;
78302;SDS011;67559;24.140;-110.296;2024-01-15T08:12:40;5.82;;;1.05;;
78302;SDS011;67559;24.140;-110.296;2024-01-15T08:15:09;4.93;;;1.08;;
78302;SDS011;67559;24.140;-110.296;2024-01-15T08:17:38;5.30;;;1.30;;
78302;SDS011;67559;24.140;-110.296;2024-01-15T08:20:07;5.93;;;1.10;;
78302;SDS011;67559;24.140;-110.296;2024-01-15T08:22:38;8.82;;;1.33;;
78302;SDS011;67559;24.140;-110.296;2024-01-15T08:25:08;5.97;;;1.30;;
78302;SDS011;67559;24.140;-110.296;2024-01-15T08:27:39;8.32;;;1.50;;
78302;SDS011;67559;24.140;-110.296;2024-01-15T08:32:37;9.38;;;1.23;;
78302;SDS011;67559;24.140;-110.296;2024-01-15T08:35:08;8.18;;;1.60;;
78302;SDS011;67559;24.140;-110.296;2024-01-15T08:37:38;3.05;;;1.02;;
78302;SDS011;67559;24.140;-110.296;2024-01-15T08:40:07;6.03;;;1.48;;
78302;SDS011;67559;24.140;-110.296;2024-01-15T08:42:49;9.52;;;1.08;;
78302;SDS011;67559;24.140;-110.296;2024-01-15T08:45:18;6.60;;;1.55;;
78302;SDS011;67559;24.140;-110.296;2024-01-15T08:47:48;13.88;;;1.40;;
78302;SDS011;67559;24.140;-110.296;2024-01-15T08:50:18;6.78;;;1.25;;
78302;SDS011;67559;24.140;-110.296;2024-01-15T08:52:47;4.03;;;0.95;;
78302;SDS011;67559;24.140;-110.296;2024-01-15T08:55:16;9.07;;;1.45;;
78302;SDS011;67559;24.140;-110.296;2024-01-15T08:57:45;8.35;;;1.55;;
78302;SDS011;67559;24.140;-110.296;2024-01-15T09:00:15;7.05;;;1.52;;
78302;SDS011;67559;24.140;-110.296;2024-01-15T09:02:44;9.18;;;1.73;;
78302;SDS011;67559;24.140;-110.296;2024-01-15T09:05:13;5.22;;;1.30;;
78302;SDS011;67559;24.140;-110.296;2024-01-15T09:07:43;6.45;;;1.50;;
78302;SDS011;67559;24.140;-110.296;2024-01-15T09:12:40;5.38;;;1.35;;
78302;SDS011;67559;24.140;-110.296;2024-01-15T09:15:09;10.95;;;1.63;;
78302;SDS011;67559;24.140;-110.296;2024-01-15T09:17:39;14.60;;;2.10;;
78302;SDS011;67559;24.140;-110.296;2024-01-15T09:20:08;11.05;;;1.40;;
78302;SDS011;67559;24.140;-110.296;2024-01-15T09:25:08;4.93;;;1.40;;
78302;SDS011;67559;24.140;-110.296;2024-01-15T09:27:38;5.35;;;1.30;;
78302;SDS011;67559;24.140;-110.296;2024-01-15T09:30:07;16.52;;;1.55;;
78302;SDS011;67559;24.140;-110.296;2024-01-15T09:32:36;12.50;;;1.85;;
78302;SDS011;67559;24.140;-110.296;2024-01-15T09:35:06;8.27;;;1.33;;
78302;SDS011;67559;24.140;-110.296;2024-01-15T09:37:35;4.15;;;1.10;;
78302;SDS011;67559;24.140;-110.296;2024-01-15T09:40:05;5.63;;;1.10;;
78302;SDS011;67559;24.140;-110.296;2024-01-15T09:42:34;15.48;;;1.98;;
78302;SDS011;67559;24.140;-110.296;2024-01-15T09:45:04;5.78;;;1.48;;
78302;SDS011;67559;24.140;-110.296;2024-01-15T09:47:33;10.00;;;1.33;;
78302;SDS011;67559;24.140;-110.296;2024-01-15T09:50:03;5.90;;;1.30;;
78302;SDS011;67559;24.140;-110.296;2024-01-15T09:55:03;6.13;;;1.00;;
78302;SDS011;67559;24.140;-110.296;2024-01-15T09:57:32;7.90;;;1.40;;
78302;SDS011;67559;24.140;-110.296;2024-01-15T10:00:02;8.32;;;1.52;;
78302;SDS011;67559;24.140;-110.296;2024-01-15T10:04:59;10.23;;;1.73;;
78302;SDS011;67559;24.140;-110.296;2024-01-15T10:07:29;7.50;;;1.42;;
78302;SDS011;67559;24.140;-110.296;2024-01-15T10:09:59;10.38;;;1.63;;
78302;SDS011;67559;24.140;-110.296;2024-01-15T10:12:28;9.02;;;1.50;;
78302;SDS011;67559;24.140;-110.296;2024-01-15T10:14:58;12.00;;;1.45;;
78302;SDS011;67559;24.140;-110.296;2024-01-15T10:17:27;10.95;;;1.85;;
78302;SDS011;67559;24.140;-110.296;2024-01-15T10:19:57;13.32;;;2.63;;
78302;SDS011;67559;24.140;-110.296;2024-01-15T10:24:55;9.50;;;1.50;;
78302;SDS011;67559;24.140;-110.296;2024-01-15T10:27:25;12.13;;;1.85;;
78302;SDS011;67559;24.140;-110.296;2024-01-15T10:29:59;12.10;;;1.50;;
78302;SDS011;67559;24.140;-110.296;2024-01-15T10:32:29;4.75;;;1.40;;
78302;SDS011;67559;24.140;-110.296;2024-01-15T10:34:58;6.82;;;1.70;;
78302;SDS011;67559;24.140;-110.296;2024-01-15T10:37:28;14.20;;;1.50;;
78302;SDS011;67559;24.140;-110.296;2024-01-15T10:39:57;4.32;;;1.05;;
78302;SDS011;67559;24.140;-110.296;2024-01-15T10:42:26;8.27;;;1.42;;
78302;SDS011;67559;24.140;-110.296;2024-01-15T10:44:55;5.57;;;1.50;;
78302;SDS011;67559;24.140;-110.296;2024-01-15T10:47:24;4.93;;;1.20;;
78302;SDS011;67559;24.140;-110.296;2024-01-15T10:49:54;10.98;;;1.88;;
78302;SDS011;67559;24.140;-110.296;2024-01-15T10:52:23;2.97;;;1.00;;
78302;SDS011;67559;24.140;-110.296;2024-01-15T10:54:53;11.32;;;1.45;;
78302;SDS011;67559;24.140;-110.296;2024-01-15T10:57:23;6.38;;;0.95;;
78302;SDS011;67559;24.140;-110.296;2024-01-15T10:59:52;10.73;;;1.52;;
78302;SDS011;67559;24.140;-110.296;2024-01-15T11:02:21;12.45;;;1.60;;
78302;SDS011;67559;24.140;-110.296;2024-01-15T11:04:50;8.30;;;1.20;;
78302;SDS011;67559;24.140;-110.296;2024-01-15T11:07:21;8.95;;;1.65;;
78302;SDS011;67559;24.140;-110.296;2024-01-15T11:09:52;6.90;;;1.25;;
78302;SDS011;67559;24.140;-110.296;2024-01-15T11:12:21;8.98;;;1.25;;
78302;SDS011;67559;24.140;-110.296;2024-01-15T11:14:51;7.78;;;1.20;;
78302;SDS011;67559;24.140;-110.296;2024-01-15T11:17:21;7.28;;;1.25;;
78302;SDS011;67559;24.140;-110.296;2024-01-15T11:19:50;10.45;;;1.75;;
78302;SDS011;67559;24.140;-110.296;2024-01-15T11:25:04;4.80;;;1.00;;
78302;SDS011;67559;24.140;-110.296;2024-01-15T11:30:11;10.70;;;1.83;;
78302;SDS011;67559;24.140;-110.296;2024-01-15T11:32:41;10.23;;;1.30;;
78302;SDS011;67559;24.140;-110.296;2024-01-15T11:35:10;11.05;;;1.63;;
78302;SDS011;67559;24.140;-110.296;2024-01-15T11:40:22;12.68;;;1.58;;
78302;SDS011;67559;24.140;-110.296;2024-01-15T11:42:51;5.05;;;1.58;;
78302;SDS011;67559;24.140;-110.296;2024-01-15T11:45:21;10.65;;;1.73;;
78302;SDS011;67559;24.140;-110.296;2024-01-15T11:50:39;7.82;;;1.30;;
78302;SDS011;67559;24.140;-110.296;2024-01-15T11:53:13;8.82;;;1.65;;
78302;SDS011;67559;24.140;-110.296;2024-01-15T11:55:44;8.43;;;1.70;;
78302;SDS011;67559;24.140;-110.296;2024-01-15T11:58:15;9.95;;;1.88;;
78302;SDS011;67559;24.140;-110.296;2024-01-15T12:00:45;6.10;;;1.77;;
78302;SDS011;67559;24.140;-110.296;2024-01-15T12:03:16;6.45;;;1.65;;
78302;SDS011;67559;24.140;-110.296;2024-01-15T12:05:46;4.80;;;1.33;;
78302;SDS011;67559;24.140;-110.296;2024-01-15T12:08:20;11.88;;;1.98;;
78302;SDS011;67559;24.140;-110.296;2024-01-15T12:10:50;14.02;;;1.98;;
78302;SDS011;67559;24.140;-110.296;2024-01-15T12:13:20;7.63;;;1.70;;
78302;SDS011;67559;24.140;-110.296;2024-01-15T12:18:18;10.63;;;2.08;;
78302;SDS011;67559;24.140;-110.296;2024-01-15T12:20:47;18.80;;;2.00;;
78302;SDS011;67559;24.140;-110.296;2024-01-15T12:23:17;16.00;;;2.20;;
78302;SDS011;67559;24.140;-110.296;2024-01-15T12:25:46;9.32;;;1.40;;
78302;SDS011;67559;24.140;-110.296;2024-01-15T12:28:17;9.50;;;1.40;;
78302;SDS011;67559;24.140;-110.296;2024-01-15T12:30:46;46.50;;;3.25;;
78302;SDS011;67559;24.140;-110.296;2024-01-15T12:33:17;18.83;;;2.35;;
78302;SDS011;67559;24.140;-110.296;2024-01-15T12:35:47;19.02;;;2.03;;
78302;SDS011;67559;24.140;-110.296;2024-01-15T12:38:18;22.17;;;1.90;;
78302;SDS011;67559;24.140;-110.296;2024-01-15T12:40:48;15.25;;;2.30;;
78302;SDS011;67559;24.140;-110.296;2024-01-15T12:43:17;9.90;;;1.85;;
78302;SDS011;67559;24.140;-110.296;2024-01-15T12:45:46;14.25;;;1.85;;
78302;SDS011;67559;24.140;-110.296;2024-01-15T12:48:16;16.35;;;2.08;;
78302;SDS011;67559;24.140;-110.296;2024-01-15T12:50:45;23.92;;;2.38;;
78302;SDS011;67559;24.140;-110.296;2024-01-15T12:53:14;23.08;;;1.95;;
78302;SDS011;67559;24.140;-110.296;2024-01-15T12:55:44;10.82;;;1.83;;
78302;SDS011;67559;24.140;-110.296;2024-01-15T12:58:13;19.33;;;2.50;;
78302;SDS011;67559;24.140;-110.296;2024-01-15T13:00:42;33.05;;;2.63;;
78302;SDS011;67559;24.140;-110.296;2024-01-15T13:03:14;31.20;;;3.45;;
78302;SDS011;67559;24.140;-110.296;2024-01-15T13:05:44;15.90;;;2.80;;
78302;SDS011;67559;24.140;-110.296;2024-01-15T13:08:13;25.00;;;3.13;;
78302;SDS011;67559;24.140;-110.296;2024-01-15T13:10:43;25.75;;;2.78;;
78302;SDS011;67559;24.140;-110.296;2024-01-15T13:13:13;39.90;;;3.15;;
78302;SDS011;67559;24.140;-110.296;2024-01-15T13:15:43;27.75;;;3.00;;
78302;SDS011;67559;24.140;-110.296;2024-01-15T13:18:12;33.00;;;3.20;;
78302;SDS011;67559;24.140;-110.296;2024-01-15T13:20:41;21.27;;;2.58;;
78302;SDS011;67559;24.140;-110.296;2024-01-15T13:23:12;24.60;;;3.25;;
78302;SDS011;67559;24.140;-110.296;2024-01-15T13:25:41;20.38;;;2.90;;
78302;SDS011;67559;24.140;-110.296;2024-01-15T13:28:10;44.70;;;5.43;;
78302;SDS011;67559;24.140;-110.296;2024-01-15T13:30:40;19.98;;;3.42;;
78302;SDS011;67559;24.140;-110.296;2024-01-15T13:33:10;16.67;;;4.50;;
78302;SDS011;67559;24.140;-110.296;2024-01-15T13:35:40;29.25;;;4.28;;
78302;SDS011;67559;24.140;-110.296;2024-01-15T13:38:09;18.73;;;3.30;;
78302;SDS011;67559;24.140;-110.296;2024-01-15T13:40:40;20.10;;;3.67;;
78302;SDS011;67559;24.140;-110.296;2024-01-15T13:43:11;25.92;;;3.53;;
78302;SDS011;67559;24.140;-110.296;2024-01-15T13:45:42;25.00;;;4.00;;
78302;SDS011;67559;24.140;-110.296;2024-01-15T13:48:11;29.15;;;3.33;;
78302;SDS011;67559;24.140;-110.296;2024-01-15T13:50:40;39.88;;;4.45;;
78302;SDS011;67559;24.140;-110.296;2024-01-15T13:53:09;48.47;;;5.57;;
78302;SDS011;67559;24.140;-110.296;2024-01-15T13:55:39;48.92;;;5.82;;
78302;SDS011;67559;24.140;-110.296;2024-01-15T13:58:08;25.75;;;4.72;;
78302;SDS011;67559;24.140;-110.296;2024-01-15T14:00:37;41.10;;;5.18;;
78302;SDS011;67559;24.140;-110.296;2024-01-15T14:03:07;96.53;;;7.28;;
78302;SDS011;67559;24.140;-110.296;2024-01-15T14:05:37;46.88;;;5.40;;
78302;SDS011;67559;24.140;-110.296;2024-01-15T14:10:34;51.47;;;5.78;;
78302;SDS011;67559;24.140;-110.296;2024-01-15T14:13:04;61.53;;;6.00;;
78302;SDS011;67559;24.140;-110.296;2024-01-15T14:15:33;74.05;;;8.50;;
78302;SDS011;67559;24.140;-110.296;2024-01-15T14:18:04;62.55;;;7.82;;
78302;SDS011;67559;24.140;-110.296;2024-01-15T14:20:34;71.28;;;7.60;;
78302;SDS011;67559;24.140;-110.296;2024-01-15T14:23:05;69.50;;;6.88;;
78302;SDS011;67559;24.140;-110.296;2024-01-15T14:25:35;66.22;;;5.95;;
78302;SDS011;67559;24.140;-110.296;2024-01-15T14:28:06;66.38;;;6.75;;
78302;SDS011;67559;24.140;-110.296;2024-01-15T14:30:38;49.97;;;6.20;;
78302;SDS011;67559;24.140;-110.296;2024-01-15T14:33:08;61.42;;;6.45;;
78302;SDS011;67559;24.140;-110.296;2024-01-15T14:35:38;83.32;;;8.40;;
78302;SDS011;67559;24.140;-110.296;2024-01-15T14:38:09;98.15;;;8.15;;
78302;SDS011;67559;24.140;-110.296;2024-01-15T14:40:39;91.75;;;8.35;;
78302;SDS011;67559;24.140;-110.296;2024-01-15T14:43:10;107.03;;;10.68;;
78302;SDS011;67559;24.140;-110.296;2024-01-15T14:45:41;202.63;;;17.90;;
78302;SDS011;67559;24.140;-110.296;2024-01-15T14:48:11;78.88;;;9.82;;
78302;SDS011;67559;24.140;-110.296;2024-01-15T14:50:41;96.80;;;9.43;;
78302;SDS011;67559;24.140;-110.296;2024-01-15T14:53:13;92.07;;;8.68;;
78302;SDS011;67559;24.140;-110.296;2024-01-15T14:55:43;87.15;;;9.60;;
78302;SDS011;67559;24.140;-110.296;2024-01-15T14:58:12;68.57;;;9.93;;
78302;SDS011;67559;24.140;-110.296;2024-01-15T15:00:42;78.60;;;9.85;;
78302;SDS011;67559;24.140;-110.296;2024-01-15T15:03:12;113.85;;;12.68;;
78302;SDS011;67559;24.140;-110.296;2024-01-15T15:08:10;229.68;;;18.17;;
78302;SDS011;67559;24.140;-110.296;2024-01-15T15:10:39;115.45;;;14.50;;
78302;SDS011;67559;24.140;-110.296;2024-01-15T15:13:10;97.25;;;13.77;;
78302;SDS011;67559;24.140;-110.296;2024-01-15T15:15:39;121.07;;;11.23;;
78302;SDS011;67559;24.140;-110.296;2024-01-15T15:18:09;72.20;;;9.30;;
78302;SDS011;67559;24.140;-110.296;2024-01-15T15:20:38;68.15;;;8.43;;
78302;SDS011;67559;24.140;-110.296;2024-01-15T15:23:07;71.65;;;9.85;;
78302;SDS011;67559;24.140;-110.296;2024-01-15T15:25:37;69.65;;;10.90;;
78302;SDS011;67559;24.140;-110.296;2024-01-15T15:28:07;62.80;;;10.52;;
78302;SDS011;67559;24.140;-110.296;2024-01-15T15:30:38;66.90;;;10.90;;
78302;SDS011;67559;24.140;-110.296;2024-01-15T15:33:07;52.70;;;9.32;;
78302;SDS011;67559;24.140;-110.296;2024-01-15T15:35:36;42.60;;;8.07;;
78302;SDS011;67559;24.140;-110.296;2024-01-15T15:38:05;60.13;;;8.85;;
78302;SDS011;67559;24.140;-110.296;2024-01-15T15:40:35;42.40;;;8.07;;
78302;SDS011;67559;24.140;-110.296;2024-01-15T15:43:04;33.40;;;7.22;;
78302;SDS011;67559;24.140;-110.296;2024-01-15T15:45:33;37.83;;;6.22;;
78302;SDS011;67559;24.140;-110.296;2024-01-15T15:48:04;29.17;;;5.70;;
78302;SDS011;67559;24.140;-110.296;2024-01-15T15:50:33;44.35;;;6.63;;
78302;SDS011;67559;24.140;-110.296;2024-01-15T15:55:30;52.08;;;4.32;;
78302;SDS011;67559;24.140;-110.296;2024-01-15T15:58:03;38.75;;;5.00;;
78302;SDS011;67559;24.140;-110.296;2024-01-15T16:00:33;71.35;;;6.72;;